Tiempo atmosférico en la estación meteorológica de Sant Hilari, Girona (810 m.)



Fecha
DESCASC
Temp. máxima en grados centígrados (hora)
DESCASC
Temp. mínima en grados centígrados (hora)
DESCASC
Temp. media en grados centígrados
DESCASC
Racha de viento máxima en m/sg (hora)
DESCASC
Velocidad máxima media en intervalos de 10 minutos(hora)
DESCASC
Precipitaciones diarias en mm
DESCASC
Precipitaciones de 00:00 a 06:00 en mm
DESCASC
Precipitaciones de 06:00 a 12:00 en mm
DESCASC
Precipitaciones de 12:00 a 18:00 en mm
DESCASC
Precipitaciones de 18:00 a 24:00 en mm
DESCASC
21-02-2021 9.2 (14:00) 1.2 (04:00) 5.2 7.22 (15:30) 1.94 (21:50) 0.6 0 0 0 0.6
20-02-2021 16.3 (13:20) 2.6 (23:50) 9.4 8.06 (11:30) 4.17 (11:20) 0 0 0 0 0
19-02-2021 16.4 (14:30) 3.2 (05:40) 9.8 10 (14:20) 5.28 (14:50) 0 0 0 0 0
18-02-2021 17.6 (12:10) 5 (00:00) 11.3 8.33 (01:00) 4.72 (01:50) 0 0 0 0 0
17-02-2021 15.3 (14:50) 2.7 (00:00) 9 8.61 (22:40) 5 (22:50) 0 0 0 0 0
16-02-2021 11.7 (17:00) 4.8 (00:00) 8.3 17.5 (10:00) 10.28 (09:40) 0 0 0 0 0
15-02-2021 6.7 (16:20) 1 (00:00) 3.8 10.28 (22:40) 5 (23:40) 0.2 0 0.2 0 0
14-02-2021 6.6 (00:00) 0.8 (00:00) 3.7 5.28 (12:00) 2.78 (23:40) 7.2 0.6 3.4 2.8 0.4
13-02-2021 11.9 (13:20) 2 (00:00) 6.9 7.22 (08:20) 4.17 (08:10) 12.8 0 0.2 0 12.6
12-02-2021 13.8 (15:00) 4 (00:00) 8.9 11.39 (12:10) 5.56 (12:50) 2.8 0 0 0 2.8
11-02-2021 12.8 (15:30) -0.9 (-00:0) 6 5.83 (03:10) 3.89 (03:10) 0 0 0 0 0
10-02-2021 10.9 (15:20) 3.2 (00:00) 7 13.06 (00:30) 7.78 (04:50) 0 0 0 0 0
09-02-2021 7.8 (15:00) 2.8 (00:00) 5.3 14.72 (09:20) 8.33 (09:40) 0.2 0.2 0 0 0
08-02-2021 7 (12:50) 2.1 (00:00) 4.5 14.44 (12:00) 7.5 (12:00) 2.6 0 0 2.6 0
07-02-2021 7.9 (00:10) 2.5 (00:00) 5.2 6.39 (23:40) 3.89 (00:10) 6.6 0 5.2 1.4 0
06-02-2021 15.5 (14:40) 7.4 (00:00) 11.5 8.33 (22:30) 4.17 (20:10) 0 0 0 0 0
05-02-2021 14.6 (14:30) 5 (00:00) 9.8 5 (11:50) 3.06 (00:10) 0 0 0 0 0
04-02-2021 17.5 (13:50) 4 (00:00) 10.8 5.28 (23:59) 2.78 (23:59) 0 0 0 0 0
03-02-2021 18.2 (14:10) 7.1 (00:00) 12.7 16.94 (07:20) 8.89 (07:40) 0 0 0 0 0
02-02-2021 15.9 (15:00) 2.7 (00:00) 9.3 9.44 (22:30) 5.83 (23:59) 0 0 0 0 0
01-02-2021 14.5 (15:50) 4.1 (00:00) 9.3 11.67 (00:40) 6.67 (06:20) 0 0 0 0 0
31-01-2021 11.1 (17:20) 3.3 (00:00) 7.2 12.5 (06:30) 7.5 (10:50) 0 0 0 0 0
30-01-2021 12.5 (14:40) 3.6 (00:00) 8 20.56 (10:00) 11.11 (10:00) 3.2 0 0 3.2 0
29-01-2021 15.4 (13:00) 6.3 (00:00) 10.8 14.17 (05:20) 8.33 (05:20) 0 0 0 0 0
28-01-2021 15.2 (14:40) 7.8 (00:00) 11.5 12.5 (07:40) 7.22 (07:40) 0 0 0 0 0
27-01-2021 15 (12:50) -1.3 (-00:0) 6.9 9.44 (21:50) 5.56 (21:40) 0 0 0 0 0
26-01-2021 8 (14:20) -0.1 (00:00) 3.9 9.17 (15:40) 5 (15:40) 0 0 0 0 0
25-01-2021 7.1 (13:20) 2.4 (00:00) 4.8 10.56 (06:50) 6.39 (03:40) 0 0 0 0 0

Gráficas

Temp. máximas Temp. mínimas Temp. medias Precipitaciones Rachas de viento máximas Velocidades máximas media en intervalos de 10 minutos

Datos horarios

Fecha y hora oficial Temperatura (ºC) Velocidad del viento (km/h) Dirección del viento Racha (km/h) Dirección de racha Precipitación (mm) Presión (hPa) Tendencia (hPa) Humedad (%)
2021-02-23 23:00:00 7.6 3 Noroeste 6 Noroeste 0 -- -- 98
2021-02-23 22:00:00 9 3 Oeste 6 Noroeste 0 -- -- 98
2021-02-23 21:00:00 9.3 3 Oeste 6 Sudoeste 0 -- -- 98
2021-02-23 20:00:00 9.6 4 Sur 8 Sur 0 -- -- 97
2021-02-23 19:00:00 10.4 5 Sur 7 Sur 0 -- -- 95
2021-02-23 18:00:00 11.8 4 Sur 12 Sur 0 -- -- 90
2021-02-23 17:00:00 13.8 5 Sur 12 Sur 0 -- -- 75
2021-02-23 16:00:00 14.2 4 Sudeste 13 Sur 0 -- -- 75
2021-02-23 15:00:00 14.1 4 Sudoeste 12 Sudoeste 0 -- -- 75
2021-02-23 14:00:00 13.2 9 Sur 15 Sur 0 -- -- 77
2021-02-23 13:00:00 11.4 6 Sur 13 Sur 0 -- -- 88
2021-02-23 12:00:00 10.7 5 Sudeste 12 Sur 0 -- -- 94
2021-02-23 11:00:00 10.5 7 Sudeste 13 Sur 0 -- -- 98
2021-02-23 10:00:00 9.7 0 Calma 10 Sudeste 0 -- -- 100
2021-02-23 09:00:00 8.5 2 Este 7 Sur 0 -- -- 100
2021-02-23 08:00:00 7.8 0 Calma 4 Sudeste 0 -- -- 100
2021-02-23 07:00:00 7.5 0 Calma 5 Noroeste 0 -- -- 100
2021-02-23 06:00:00 7.5 2 Noroeste 5 Noroeste 0 -- -- 100
2021-02-23 05:00:00 7.4 0 Calma 5 Nordeste 0 -- -- 100
2021-02-23 04:00:00 7.4 3 Norte 5 Norte 0 -- -- 100
2021-02-23 03:00:00 7.4 3 Norte 7 Este 0 -- -- 100
2021-02-23 02:00:00 7.6 3 Sudeste 10 Sudeste 0 -- -- 100
2021-02-23 01:00:00 7.5 0 Calma 7 Sur 0 -- -- 100
2021-02-23 00:00:00 7.8 2 Sudeste 10 Sudeste 0 -- -- 100
2021-02-22 23:00:00 7.7 3 Sudeste 10 Este 0 -- -- 100
2021-02-22 22:00:00 7.8 4 Sudeste 20 Sur 0.2 -- -- 100
2021-02-22 21:00:00 8.1 7 Sur 26 Sur 0.4 -- -- 100
2021-02-22 20:00:00 8.3 10 Sudeste 27 Sudeste 1.2 -- -- 100
2021-02-22 19:00:00 8.6 6 Sudeste 25 Este 0.2 -- -- 100
2021-02-22 18:00:00 8.7 7 Sudeste 23 Este 0 -- -- 100
2021-02-22 17:00:00 8.8 5 Sudeste 17 Sur 0.4 -- -- 100
2021-02-22 16:00:00 9.3 3 Sudeste 14 Sudeste 0.8 -- -- 100
2021-02-22 15:00:00 9.4 5 Sudeste 16 Sur 0.4 -- -- 100
2021-02-22 14:00:00 9.4 2 Este 10 Sur 0.4 -- -- 100
2021-02-22 13:00:00 9.4 3 Sudeste 10 Este 0.8 -- -- 100
2021-02-22 12:00:00 9.3 4 Sudeste 16 Sur 0.4 -- -- 100
2021-02-22 11:00:00 9 4 Sur 12 Sudeste 0.6 -- -- 100
2021-02-22 10:00:00 9 4 Este 13 Sudeste 0 -- -- 100
2021-02-22 09:00:00 9.2 4 Este 11 Nordeste 0.6 -- -- 100
2021-02-22 08:00:00 9.2 4 Sudeste 13 Sudeste 1.4 -- -- 100
2021-02-22 07:00:00 9.1 3 Este 11 Sudoeste 0.4 -- -- 100
2021-02-22 06:00:00 9.1 3 Sudeste 12 Sur 0.4 -- -- 100
2021-02-22 05:00:00 9 4 Sur 13 Sudeste 0.6 -- -- 100
2021-02-22 04:00:00 8.9 4 Sur 12 Sur 0.6 -- -- 100
2021-02-22 03:00:00 8.6 4 Norte 18 Norte 0.6 -- -- 99
2021-02-22 02:00:00 8.5 5 Noroeste 14 Sur 0.8 -- -- 99
2021-02-22 01:00:00 8.3 5 Sudoeste 15 Nordeste 0.4 -- -- 99
2021-02-22 00:00:00 8.2 4 Sur 14 Sur 0.4 -- -- 99
2021-02-21 23:00:00 8 5 Sur 18 Sudeste 0.2 -- -- 99
2021-02-21 22:00:00 7.9 5 Sudeste 18 Sur 0 -- -- 99
2021-02-21 21:00:00 7.7 6 Sudoeste 21 Norte 0 -- -- 98
2021-02-21 20:00:00 7.5 6 Oeste 24 Nordeste 0 -- -- 97
2021-02-21 19:00:00 7.6 5 Noroeste 15 Este 0 -- -- 96
2021-02-21 18:00:00 7.7 5 Sur 24 Nordeste 0 -- -- 94
2021-02-21 17:00:00 8.2 5 Este 20 Nordeste 0 -- -- 90
2021-02-21 16:00:00 8.3 4 Sur 26 Nordeste 0 -- -- 87
2021-02-21 15:00:00 8.6 5 Sudeste 17 Nordeste 0 -- -- 87
2021-02-21 14:00:00 9.2 4 Norte 19 Sudeste 0 -- -- 83
2021-02-21 13:00:00 8.6 6 Este 19 Este 0 -- -- 84
2021-02-21 12:00:00 8.3 4 Este 16 Sudeste 0 -- -- 87
2021-02-21 11:00:00 7.9 4 Nordeste 13 Este 0 -- -- 87
2021-02-21 10:00:00 7.2 4 Nordeste 11 Nordeste 0 -- -- 92
2021-02-21 09:00:00 6.4 3 Noroeste 6 Sudoeste 0 -- -- 97
2021-02-21 08:00:00 5.4 0 Calma 7 Sudeste 0 -- -- 97
2021-02-21 07:00:00 3.5 0 Calma 3 Sudoeste 0 -- -- 97
2021-02-21 06:00:00 2.4 0 Calma 4 Nordeste 0 -- -- 96
2021-02-21 05:00:00 1.3 0 Calma 4 Sur 0 -- -- 87
2021-02-21 04:00:00 1.2 0 Calma 4 Nordeste 0 -- -- 87
2021-02-21 03:00:00 1.7 2 Sudoeste 3 Sudoeste 0 -- -- 82
2021-02-21 02:00:00 1.6 0 Calma 2 Sur 0 -- -- 85
2021-02-21 01:00:00 1.9 0 Calma 3 Este 0 -- -- 87
2021-02-21 00:00:00 2.6 0 Calma 4 Este 0 -- -- 84
2021-02-20 23:00:00 3.5 0 Calma 4 Sudoeste 0 -- -- 78
2021-02-20 22:00:00 3.3 0 Calma 6 Norte 0 -- -- 85
2021-02-20 21:00:00 4.6 0 Calma 4 Sur 0 -- -- 89
2021-02-20 20:00:00 5.8 0 Calma 6 Sur 0 -- -- 91
2021-02-20 19:00:00 7.3 4 Sur 9 Sur 0 -- -- 88
2021-02-20 18:00:00 9.8 3 Sudeste 15 Sur 0 -- -- 81
2021-02-20 17:00:00 13.2 6 Sur 15 Sur 0 -- -- 67
2021-02-20 16:00:00 15.7 7 Sur 16 Sur 0 -- -- 57
2021-02-20 15:00:00 15.6 8 Sur 18 Sudoeste 0 -- -- 55
2021-02-20 14:00:00 16.2 5 Sur 15 Sur 0 -- -- 49
2021-02-20 13:00:00 15.7 7 Sur 28 Sudoeste 0 -- -- 48
2021-02-20 12:00:00 15.6 12 Sur 29 Sur 0 -- -- 36
2021-02-20 11:00:00 14.5 14 Sur 25 Sur 0 -- -- 37
2021-02-20 10:00:00 13.4 13 Sudoeste 25 Sudoeste 0 -- -- 37
2021-02-20 09:00:00 11.5 9 Sudoeste 18 Oeste 0 -- -- 45
2021-02-20 08:00:00 7.2 0 Calma 15 Sudoeste 0 -- -- 61
2021-02-20 07:00:00 10.1 8 Sudoeste 21 Sudoeste 0 -- -- 48
2021-02-20 06:00:00 10.3 12 Sudoeste 26 Oeste 0 -- -- 45
2021-02-20 05:00:00 9.4 9 Sudoeste 21 Sudoeste 0 -- -- 48
2021-02-20 04:00:00 10.1 10 Sudoeste 22 Sudoeste 0 -- -- 43
2021-02-20 03:00:00 9.2 10 Sudoeste 20 Sudoeste 0 -- -- 46
2021-02-20 02:00:00 5.7 3 Oeste 6 Oeste 0 -- -- 64
2021-02-20 01:00:00 5.9 3 Sudoeste 5 Sur 0 -- -- 63
2021-02-20 00:00:00 6.6 0 Calma 13 Sudoeste 0 -- -- 57
2021-02-19 23:00:00 8.1 8 Sudoeste 13 Sudoeste 0 -- -- 54
2021-02-19 22:00:00 8.4 6 Oeste 15 Sudoeste 0 -- -- 55
2021-02-19 21:00:00 11 7 Sudoeste 15 Sudoeste 0 -- -- 43
2021-02-19 20:00:00 11.7 10 Sudoeste 18 Oeste 0 -- -- 45
2021-02-19 19:00:00 12 6 Oeste 22 Sudoeste 0 -- -- 52
2021-02-19 18:00:00 13.3 8 Sudoeste 29 Sudoeste 0 -- -- 54
2021-02-19 17:00:00 14 10 Sudoeste 33 Sudoeste 0 -- -- 59
2021-02-19 16:00:00 15.9 14 Sudoeste 35 Oeste 0 -- -- 41
2021-02-19 15:00:00 16.2 14 Oeste 36 Noroeste 0 -- -- 39
2021-02-19 14:00:00 15.7 18 Oeste 35 Oeste 0 -- -- 37
2021-02-19 13:00:00 15.6 15 Oeste 30 Oeste 0 -- -- 38
2021-02-19 12:00:00 15.2 10 Oeste 26 Oeste 0 -- -- 41
2021-02-19 11:00:00 13.3 9 Noroeste 25 Oeste 0 -- -- 44
2021-02-19 10:00:00 10.4 7 Sur 11 Sudoeste 0 -- -- 55
2021-02-19 09:00:00 4.6 0 Calma 4 Sur 0 -- -- 81
2021-02-19 08:00:00 3.5 2 Sur 4 Sur 0 -- -- 83
2021-02-19 07:00:00 3.7 0 Calma 5 Oeste 0 -- -- 78
2021-02-19 06:00:00 3.4 0 Calma 5 Sur 0 -- -- 81
2021-02-19 05:00:00 3.5 0 Calma 4 Sudoeste 0 -- -- 80
2021-02-19 04:00:00 3.7 0 Calma 4 Sudoeste 0 -- -- 80
2021-02-19 03:00:00 3.9 0 Calma 3 Sur 0 -- -- 80
2021-02-19 02:00:00 4.2 0 Calma 5 Sudoeste 0 -- -- 80
2021-02-19 01:00:00 4.8 0 Calma 6 Norte 0 -- -- 81
2021-02-19 00:00:00 5 3 Norte 8 Noroeste 0 -- -- 85
2021-02-18 23:00:00 6.1 3 Norte 8 Oeste 0 -- -- 83
2021-02-18 22:00:00 6.5 3 Noroeste 7 Noroeste 0 -- -- 77
2021-02-18 21:00:00 8.2 5 Norte 8 Norte 0 -- -- 71
2021-02-18 20:00:00 7.4 3 Noroeste 5 Noroeste 0 -- -- 73
2021-02-18 19:00:00 9.7 2 Noroeste 6 Sur 0 -- -- 72
2021-02-18 18:00:00 12.6 2 Sur 11 Sur 0 -- -- 68
2021-02-18 17:00:00 14.8 4 Este 15 Este 0 -- -- 59
2021-02-18 16:00:00 16 9 Sur 21 Sur 0 -- -- 52
2021-02-18 15:00:00 16.7 14 Sur 22 Sur 0 -- -- 43
2021-02-18 14:00:00 17 11 Sur 21 Sur 0 -- -- 41
2021-02-18 13:00:00 17 12 Sur 21 Sur 0 -- -- 43
2021-02-18 12:00:00 17.3 9 Sur 17 Sudoeste 0 -- -- 37
2021-02-18 11:00:00 16 8 Sudoeste 18 Oeste 0 -- -- 38
2021-02-18 10:00:00 14.3 9 Sudoeste 20 Sudoeste 0 -- -- 36
2021-02-18 09:00:00 12.2 9 Oeste 18 Sudoeste 0 -- -- 44
2021-02-18 08:00:00 9.2 8 Oeste 19 Oeste 0 -- -- 56
2021-02-18 07:00:00 7.7 10 Noroeste 19 Noroeste 0 -- -- 64
2021-02-18 06:00:00 7 8 Noroeste 15 Noroeste 0 -- -- 70
2021-02-18 05:00:00 8.1 9 Noroeste 15 Noroeste 0 -- -- 66
2021-02-18 04:00:00 8.6 10 Noroeste 17 Noroeste 0 -- -- 65
2021-02-18 03:00:00 9.3 10 Noroeste 26 Oeste 0 -- -- 64
2021-02-18 02:00:00 10.8 14 Oeste 30 Oeste 0 -- -- 58
2021-02-18 01:00:00 10.9 16 Noroeste 30 Oeste 0 -- -- 60
2021-02-18 00:00:00 10.7 15 Oeste 29 Oeste 0 -- -- 73
2021-02-17 23:00:00 11 16 Noroeste 31 Noroeste 0 -- -- 73
2021-02-17 22:00:00 11 15 Noroeste 28 Noroeste 0 -- -- 65
2021-02-17 21:00:00 10.7 10 Oeste 20 Oeste 0 -- -- 67
2021-02-17 20:00:00 10.9 8 Oeste 13 Oeste 0 -- -- 69
2021-02-17 19:00:00 11.2 6 Oeste 15 Oeste 0 -- -- 70
2021-02-17 18:00:00 13 6 Oeste 24 Noroeste 0 -- -- 61
2021-02-17 17:00:00 13.9 12 Oeste 26 Oeste 0 -- -- 59
2021-02-17 16:00:00 14.9 13 Oeste 26 Noroeste 0 -- -- 56
2021-02-17 15:00:00 15.3 8 Oeste 23 Noroeste 0 -- -- 57
2021-02-17 14:00:00 14.4 4 Sudoeste 18 Sudoeste 0 -- -- 61
2021-02-17 13:00:00 13.7 8 Sur 19 Sur 0 -- -- 64
2021-02-17 12:00:00 12.7 8 Sur 19 Sur 0 -- -- 64
2021-02-17 11:00:00 10.9 5 Sur 12 Sur 0 -- -- 73
2021-02-17 10:00:00 8.1 6 Sur 13 Sur 0 -- -- 81
2021-02-17 09:00:00 3.7 0 Calma 3 Norte 0 -- -- 99
2021-02-17 08:00:00 2.8 2 Noroeste 4 Norte 0 -- -- 99
2021-02-17 07:00:00 2.9 0 Calma 4 Noroeste 0 -- -- 98
2021-02-17 06:00:00 3.1 0 Calma 3 Norte 0 -- -- 98
2021-02-17 05:00:00 3.6 0 Calma 2 Nordeste 0 -- -- 98
2021-02-17 04:00:00 3.9 0 Calma 4 Sudoeste 0 -- -- 98
2021-02-17 03:00:00 3.4 3 Noroeste 5 Noroeste 0 -- -- 97
2021-02-17 02:00:00 3.8 0 Calma 3 Oeste 0 -- -- 97
2021-02-17 01:00:00 4.7 0 Calma 3 Sur 0 -- -- 97
2021-02-17 00:00:00 4.8 2 Norte 5 Norte 0 -- -- 97
2021-02-16 23:00:00 5.7 6 Norte 9 Norte 0 -- -- 97
2021-02-16 22:00:00 6.1 2 Este 12 Este 0 -- -- 94
2021-02-16 21:00:00 8.3 4 Nordeste 22 Noroeste 0 -- -- 80
2021-02-16 20:00:00 9 13 Noroeste 24 Noroeste 0 -- -- 77
2021-02-16 19:00:00 9.4 14 Noroeste 27 Noroeste 0 -- -- 75
2021-02-16 18:00:00 10.3 19 Noroeste 33 Noroeste 0 -- -- 72
2021-02-16 17:00:00 11.7 22 Noroeste 39 Noroeste 0 -- -- 68
2021-02-16 16:00:00 11.1 23 Noroeste 45 Noroeste 0 -- -- 70
2021-02-16 15:00:00 9.4 24 Noroeste 47 Noroeste 0 -- -- 75
2021-02-16 14:00:00 8.6 28 Noroeste 49 Noroeste 0 -- -- 79
2021-02-16 13:00:00 8.5 27 Noroeste 48 Noroeste 0 -- -- 79
2021-02-16 12:00:00 7.1 31 Noroeste 59 Noroeste 0 -- -- 84
2021-02-16 11:00:00 6.4 31 Noroeste 60 Noroeste 0 -- -- 88
2021-02-16 10:00:00 5.6 34 Noroeste 63 Noroeste 0 -- -- 89
2021-02-16 09:00:00 5.3 33 Noroeste 54 Oeste 0 -- -- 89
2021-02-16 08:00:00 5 20 Noroeste 44 Oeste 0 -- -- 89
2021-02-16 07:00:00 5.1 16 Noroeste 36 Oeste 0 -- -- 89
2021-02-16 06:00:00 5.3 14 Oeste 36 Sudoeste 0 -- -- 87
2021-02-16 05:00:00 5.4 19 Noroeste 58 Noroeste 0 -- -- 90
2021-02-16 04:00:00 5.3 27 Noroeste 51 Oeste 0 -- -- 91
2021-02-16 03:00:00 5.3 24 Noroeste 49 Oeste 0 -- -- 91
2021-02-16 02:00:00 5.5 13 Oeste 46 Sudoeste 0 -- -- 89
2021-02-16 01:00:00 5.7 22 Sudoeste 42 Oeste 0 -- -- 88
2021-02-16 00:00:00 5.7 13 Oeste 35 Sudoeste 0 -- -- 89
2021-02-15 23:00:00 5.7 15 Oeste 37 Oeste 0 -- -- 88
2021-02-15 22:00:00 5.6 13 Oeste 29 Oeste 0 -- -- 88
2021-02-15 21:00:00 5.6 11 Oeste 28 Sudoeste 0 -- -- 89
2021-02-15 20:00:00 5.7 11 Oeste 22 Oeste 0 -- -- 87
2021-02-15 19:00:00 5.4 6 Oeste 21 Sudoeste 0 -- -- 88
2021-02-15 18:00:00 5.5 7 Oeste 19 Oeste 0 -- -- 88
2021-02-15 17:00:00 5.7 12 Oeste 23 Oeste 0 -- -- 88
2021-02-15 16:00:00 6.3 14 Noroeste 24 Oeste 0 -- -- 86
2021-02-15 15:00:00 6.1 12 Oeste 28 Noroeste 0 -- -- 87
2021-02-15 14:00:00 6.2 11 Noroeste 26 Noroeste 0 -- -- 88
2021-02-15 13:00:00 5.5 10 Noroeste 21 Noroeste 0 -- -- 92
2021-02-15 12:00:00 4.4 7 Sur 12 Sur 0 -- -- 99
2021-02-15 11:00:00 3.3 6 Sur 11 Sur 0 -- -- 100
2021-02-15 10:00:00 2.8 5 Sur 12 Sur 0 -- -- 100
2021-02-15 09:00:00 2.4 6 Sur 11 Sur 0 -- -- 100
2021-02-15 08:00:00 2.1 5 Sur 10 Sur 0.2 -- -- 100
2021-02-15 07:00:00 2 3 Sudeste 9 Sur 0 -- -- 100
2021-02-15 06:00:00 1.8 5 Sur 9 Sur 0 -- -- 100
2021-02-15 05:00:00 1.7 4 Sur 10 Sur 0 -- -- 100
2021-02-15 04:00:00 1.5 6 Sur 10 Sur 0 -- -- 100
2021-02-15 03:00:00 1.4 5 Sur 10 Sur 0 -- -- 100
2021-02-15 02:00:00 1.2 6 Sur 15 Sudeste 0 -- -- 100
2021-02-15 01:00:00 1.1 9 Sur 21 Sudeste 0 -- -- 100
2021-02-15 00:00:00 1 10 Sur 19 Sur 0 -- -- 100
2021-02-14 23:00:00 1 7 Sur 15 Sudeste 0 -- -- 100
2021-02-14 22:00:00 0.9 9 Sur 18 Sudeste 0 -- -- 100
2021-02-14 21:00:00 0.8 7 Sur 15 Sur 0 -- -- 100
2021-02-14 20:00:00 0.8 7 Sur 16 Sudoeste 0.2 -- -- 100
2021-02-14 19:00:00 0.9 7 Sur 13 Sudeste 0.2 -- -- 100
2021-02-14 18:00:00 1.2 8 Sur 14 Sur 0 -- -- 100
2021-02-14 17:00:00 1.3 4 Sudeste 12 Sur 0.2 -- -- 100
2021-02-14 16:00:00 1.1 3 Sudeste 14 Sudeste 1 -- -- 100
2021-02-14 15:00:00 1.5 5 Este 13 Sudeste 0.4 -- -- 100
2021-02-14 14:00:00 1.8 3 Este 12 Este 0.6 -- -- 100
2021-02-14 13:00:00 2.1 4 Este 15 Este 0.6 -- -- 100
2021-02-14 12:00:00 2.4 6 Este 19 Sudeste 0.6 -- -- 100
2021-02-14 11:00:00 2.5 4 Sudeste 13 Sur 0.4 -- -- 100
2021-02-14 10:00:00 3 4 Sudeste 13 Sur 0.8 -- -- 100
2021-02-14 09:00:00 3.1 2 Sur 6 Sudeste 1 -- -- 100
2021-02-14 08:00:00 3.1 2 Sudeste 6 Sudeste 0.2 -- -- 100
2021-02-14 07:00:00 3.1 4 Este 10 Este 0.4 -- -- 100
2021-02-14 06:00:00 3.1 3 Noroeste 9 Nordeste 0 -- -- 100
2021-02-14 05:00:00 2.9 3 Este 10 Este 0.2 -- -- 100
2021-02-14 04:00:00 3.3 3 Nordeste 10 Este 0 -- -- 99
2021-02-14 03:00:00 4.4 4 Este 9 Este 0.2 -- -- 99
2021-02-14 02:00:00 5.5 2 Este 7 Sudeste 0.2 -- -- 99
2021-02-14 01:00:00 6.5 2 Este 8 Sudeste 0 -- -- 99
2021-02-14 00:00:00 6.6 0 Calma 3 Sudoeste 0 -- -- 99
2021-02-13 23:00:00 6.7 3 Sudeste 12 Sudeste 0 -- -- 98
2021-02-13 22:00:00 6.9 6 Sur 12 Sur 2.8 -- -- 98
2021-02-13 21:00:00 7.1 4 Sur 14 Sudeste 6 -- -- 98
2021-02-13 20:00:00 7.3 7 Sur 10 Sur 3.8 -- -- 98
2021-02-13 19:00:00 7.5 4 Sur 8 Sudeste 0 -- -- 97
2021-02-13 18:00:00 7.8 4 Sudeste 16 Sur 0 -- -- 96
2021-02-13 17:00:00 8.6 5 Sur 13 Sur 0 -- -- 91
2021-02-13 16:00:00 10.3 4 Sudeste 9 Sudeste 0 -- -- 84
2021-02-13 15:00:00 10.5 4 Este 10 Sudeste 0 -- -- 84
2021-02-13 14:00:00 11.2 4 Este 14 Sur 0 -- -- 77
2021-02-13 13:00:00 11.7 9 Sur 16 Sur 0 -- -- 77
2021-02-13 08:00:00 -- -- -- -- -- -- -- -- --
2021-02-13 07:00:00 2.3 4 Norte 9 Norte 0 -- -- 98
2021-02-13 06:00:00 2.5 4 Norte 8 Norte 0 -- -- 99
2021-02-13 05:00:00 2.9 0 Calma 6 Noroeste 0 -- -- 98
2021-02-13 04:00:00 3.4 2 Noroeste 13 Este 0 -- -- 97
2021-02-13 03:00:00 5.3 5 Nordeste 10 Noroeste 0 -- -- 97
2021-02-13 02:00:00 5.7 0 Calma 11 Este 0 -- -- 97
2021-02-13 01:00:00 6.8 3 Noroeste 10 Sudoeste 0 -- -- 93
2021-02-13 00:00:00 7 3 Norte 13 Norte 0 -- -- 97
2021-02-12 23:00:00 6.6 0 Calma 15 Noroeste 0 -- -- 97
2021-02-12 22:00:00 6.5 4 Oeste 14 Oeste 0 -- -- 96
2021-02-12 21:00:00 6.5 7 Oeste 12 Oeste 0 -- -- 95
2021-02-12 20:00:00 7 3 Sudeste 12 Noroeste 1.4 -- -- 95
2021-02-12 19:00:00 7.1 8 Noroeste 24 Norte 1.4 -- -- 94
2021-02-12 18:00:00 7.8 6 Noroeste 9 Este 0 -- -- 93
2021-02-12 17:00:00 8.3 4 Nordeste 16 Sur 0 -- -- 88
2021-02-12 16:00:00 12.5 11 Sudoeste 24 Oeste 0 -- -- 72
2021-02-12 15:00:00 13.8 11 Sudoeste 30 Sudoeste 0 -- -- 65
2021-02-12 14:00:00 13 14 Oeste 33 Oeste 0 -- -- 69
2021-02-12 13:00:00 12.8 19 Oeste 41 Sudoeste 0 -- -- 69
2021-02-12 12:00:00 13.3 16 Oeste 34 Sudoeste 0 -- -- 69
2021-02-12 11:00:00 12 15 Oeste 30 Oeste 0 -- -- 73
2021-02-12 10:00:00 11 10 Oeste 26 Oeste 0 -- -- 79
2021-02-12 09:00:00 7.7 3 Sudeste 5 Sur 0 -- -- 88
2021-02-12 08:00:00 7.7 0 Calma 10 Sudoeste 0 -- -- 85
2021-02-12 07:00:00 8 6 Oeste 15 Noroeste 0 -- -- 85
2021-02-12 06:00:00 7.7 9 Noroeste 28 Oeste 0 -- -- 87
2021-02-12 05:00:00 6.3 9 Noroeste 17 Oeste 0 -- -- 91
2021-02-12 04:00:00 5.2 3 Norte 8 Sudoeste 0 -- -- 93
2021-02-12 03:00:00 5.2 3 Norte 9 Norte 0 -- -- 91
2021-02-12 02:00:00 5.4 4 Nordeste 11 Noroeste 0 -- -- 95
2021-02-12 01:00:00 4 2 Noroeste 5 Noroeste 0 -- -- 93
2021-02-12 00:00:00 4.5 2 Noroeste 6 Noroeste 0 -- -- 87
2021-02-11 23:00:00 5.6 3 Norte 10 Norte 0 -- -- 84
2021-02-11 22:00:00 6.1 4 Norte 12 Norte 0 -- -- 81
2021-02-11 21:00:00 7.6 6 Norte 17 Norte 0 -- -- 73
2021-02-11 20:00:00 8 9 Norte 18 Noroeste 0 -- -- 69
2021-02-11 19:00:00 8.2 13 Noroeste 19 Oeste 0 -- -- 67
2021-02-11 18:00:00 10.2 3 Noroeste 12 Oeste 0 -- -- 59
2021-02-11 17:00:00 12.1 4 Sur 13 Sudoeste 0 -- -- 61
2021-02-11 16:00:00 12.8 7 Sur 14 Sur 0 -- -- 60
2021-02-11 15:00:00 12.3 8 Sur 15 Norte 0 -- -- 66
2021-02-11 14:00:00 10.8 6 Sur 14 Sur 0 -- -- 67
2021-02-11 13:00:00 9.8 6 Sur 14 Sur 0 -- -- 73
2021-02-11 12:00:00 7.9 4 Sudeste 12 Sur 0 -- -- 81
2021-02-11 11:00:00 6.2 6 Sur 10 Sur 0 -- -- 97
2021-02-11 10:00:00 2.1 0 Calma 4 Noroeste 0 -- -- 99
2021-02-11 09:00:00 -0.1 0 Calma 6 Nordeste 0 -- -- 98
2021-02-11 08:00:00 -0.5 4 Norte 5 Noroeste 0 -- -- 97
2021-02-11 07:00:00 -0.2 3 Norte 6 Noroeste 0 -- -- 96
2021-02-11 06:00:00 0.8 4 Norte 6 Nordeste 0 -- -- 94
2021-02-11 05:00:00 1.8 0 Calma 5 Sur 0 -- -- 93
2021-02-11 04:00:00 2.5 0 Calma 21 Norte 0 -- -- 88
2021-02-11 03:00:00 1.7 5 Este 17 Norte 0 -- -- 93
2021-02-11 02:00:00 2.1 5 Noroeste 14 Noroeste 0 -- -- 88
2021-02-11 01:00:00 3.3 3 Sudeste 15 Norte 0 -- -- 86
2021-02-11 00:00:00 4.5 13 Noroeste 19 Norte 0 -- -- 81
2021-02-10 23:00:00 4 6 Noroeste 14 Norte 0 -- -- 84
2021-02-10 22:00:00 5.4 6 Norte 19 Noroeste 0 -- -- 79
2021-02-10 21:00:00 5.3 12 Noroeste 17 Noroeste 0 -- -- 81
2021-02-10 20:00:00 6.1 6 Oeste 19 Oeste 0 -- -- 79
2021-02-10 19:00:00 6.4 13 Noroeste 24 Norte 0 -- -- 79
2021-02-10 18:00:00 8.3 8 Oeste 19 Noroeste 0 -- -- 69
2021-02-10 17:00:00 10.1 9 Sudoeste 15 Sudoeste 0 -- -- 58
2021-02-10 16:00:00 10.8 4 Sudoeste 17 Noroeste 0 -- -- 61
2021-02-10 15:00:00 10.1 5 Sur 10 Sur 0 -- -- 61
2021-02-10 14:00:00 8.2 5 Nordeste 18 Noroeste 0 -- -- 68
2021-02-10 13:00:00 7.5 7 Norte 19 Noroeste 0 -- -- 73
2021-02-10 12:00:00 6.5 7 Norte 21 Noroeste 0 -- -- 78
2021-02-10 11:00:00 4.6 12 Noroeste 27 Noroeste 0 -- -- 83
2021-02-10 10:00:00 3.7 12 Noroeste 19 Noroeste 0 -- -- 89
2021-02-10 09:00:00 3.4 8 Noroeste 17 Noroeste 0 -- -- 87
2021-02-10 08:00:00 3.3 7 Norte 24 Norte 0 -- -- 87
2021-02-10 07:00:00 3.7 20 Noroeste 39 Noroeste 0 -- -- 84
2021-02-10 06:00:00 4.2 20 Noroeste 42 Oeste 0 -- -- 83
2021-02-10 05:00:00 4.6 22 Noroeste 46 Noroeste 0 -- -- 80
2021-02-10 04:00:00 4.1 19 Noroeste 32 Noroeste 0 -- -- 85
2021-02-10 03:00:00 4.1 15 Noroeste 37 Noroeste 0 -- -- 87
2021-02-10 02:00:00 5 21 Noroeste 38 Oeste 0 -- -- 83
2021-02-10 01:00:00 5.4 24 Noroeste 47 Oeste 0 -- -- 87
2021-02-10 00:00:00 6.1 28 Noroeste 47 Noroeste 0 -- -- 83
2021-02-09 23:00:00 6.7 24 Noroeste 51 Oeste 0 -- -- 82
2021-02-09 22:00:00 7.3 23 Noroeste 46 Noroeste 0 -- -- 82
2021-02-09 21:00:00 7.5 24 Oeste 53 Oeste 0 -- -- 79
2021-02-09 20:00:00 7 25 Oeste 47 Oeste 0 -- -- 83
2021-02-09 19:00:00 5.9 19 Noroeste 31 Noroeste 0 -- -- 87
2021-02-09 18:00:00 6.1 16 Noroeste 35 Oeste 0 -- -- 88
2021-02-09 17:00:00 7.7 16 Noroeste 38 Oeste 0 -- -- 73
2021-02-09 16:00:00 7.6 12 Oeste 28 Sudoeste 0 -- -- 78
2021-02-09 15:00:00 7.8 13 Oeste 33 Sudoeste 0 -- -- 76
2021-02-09 14:00:00 7.3 14 Oeste 39 Oeste 0 -- -- 78
2021-02-09 13:00:00 7.6 18 Sudoeste 52 Sudoeste 0 -- -- 74
2021-02-09 12:00:00 7.2 19 Oeste 42 Oeste 0 -- -- 73
2021-02-09 11:00:00 5.9 16 Oeste 36 Noroeste 0 -- -- 79
2021-02-09 10:00:00 4 25 Noroeste 53 Noroeste 0 -- -- 84
2021-02-09 09:00:00 3.3 27 Noroeste 44 Noroeste 0 -- -- 87
2021-02-09 08:00:00 2.9 25 Noroeste 39 Norte 0 -- -- 89
2021-02-09 07:00:00 3.1 20 Norte 37 Noroeste 0 -- -- 88
2021-02-09 06:00:00 3 18 Noroeste 48 Noroeste 0 -- -- 89
2021-02-09 05:00:00 3.2 21 Noroeste 38 Norte 0.2 -- -- 90
2021-02-09 04:00:00 3.5 22 Noroeste 40 Noroeste 0 -- -- 91
2021-02-09 03:00:00 3.7 14 Noroeste 31 Noroeste 0 -- -- 92
2021-02-09 02:00:00 3.8 18 Noroeste 29 Noroeste 0 -- -- 92
2021-02-09 01:00:00 4 15 Noroeste 27 Noroeste 0 -- -- 91
2021-02-09 00:00:00 4.2 14 Noroeste 30 Noroeste 0 -- -- 91
2021-02-08 23:00:00 4.5 14 Noroeste 28 Noroeste 0 -- -- 91
2021-02-08 22:00:00 4.7 5 Noroeste 19 Sudoeste 0 -- -- 91
2021-02-08 21:00:00 4.5 6 Noroeste 19 Oeste 0 -- -- 91
2021-02-08 20:00:00 4.5 5 Sur 15 Sudoeste 0 -- -- 94
2021-02-08 19:00:00 4.7 3 Sudoeste 12 Norte 0 -- -- 93
2021-02-08 18:00:00 4.5 7 Norte 22 Oeste 0 -- -- 95
2021-02-08 17:00:00 4.5 15 Norte 34 Noroeste 0 -- -- 94
2021-02-08 16:00:00 4.2 18 Noroeste 37 Noroeste 1.6 -- -- 93
2021-02-08 15:00:00 4.8 18 Noroeste 37 Noroeste 1 -- -- 92
2021-02-08 14:00:00 5.5 20 Noroeste 48 Oeste 0 -- -- 87
2021-02-08 13:00:00 6.9 27 Noroeste 46 Noroeste 0 -- -- 79
2021-02-08 12:00:00 6.9 27 Noroeste 52 Oeste 0 -- -- 78
2021-02-08 11:00:00 6 24 Noroeste 47 Noroeste 0 -- -- 82
2021-02-08 10:00:00 4.8 26 Noroeste 43 Oeste 0 -- -- 81
2021-02-08 09:00:00 3.3 20 Noroeste 39 Noroeste 0 -- -- 85
2021-02-08 08:00:00 2.6 24 Noroeste 39 Noroeste 0 -- -- 85
2021-02-08 07:00:00 2.6 20 Noroeste 36 Noroeste 0 -- -- 84
2021-02-08 06:00:00 2.8 17 Noroeste 37 Noroeste 0 -- -- 82
2021-02-08 05:00:00 2.7 17 Noroeste 35 Noroeste 0 -- -- 82
2021-02-08 04:00:00 2.3 8 Noroeste 26 Norte 0 -- -- 84
2021-02-08 03:00:00 2.3 8 Oeste 30 Oeste 0 -- -- 85
2021-02-08 02:00:00 2.4 9 Noroeste 19 Oeste 0 -- -- 87
2021-02-08 01:00:00 2.8 10 Noroeste 22 Noroeste 0 -- -- 85
2021-02-08 00:00:00 3.1 10 Oeste 23 Noroeste 0 -- -- 86
2021-02-07 23:00:00 3.6 8 Oeste 19 Oeste 0 -- -- 83
2021-02-07 22:00:00 3.5 8 Oeste 16 Noroeste 0 -- -- 85
2021-02-07 21:00:00 3.4 8 Oeste 20 Oeste 0 -- -- 89
2021-02-07 20:00:00 2.5 2 Sudoeste 9 Sudoeste 0 -- -- 96
2021-02-07 19:00:00 2.8 4 Noroeste 16 Noroeste 0 -- -- 94
2021-02-07 18:00:00 3.2 6 Noroeste 20 Oeste 0 -- -- 94
2021-02-07 17:00:00 3.1 5 Noroeste 21 Norte 0 -- -- 97
2021-02-07 16:00:00 3.2 10 Noroeste 18 Norte 0.2 -- -- 96
2021-02-07 15:00:00 4 9 Noroeste 15 Noroeste 0 -- -- 96
2021-02-07 14:00:00 3.5 4 Sur 10 Sur 0.6 -- -- 98
2021-02-07 13:00:00 4 8 Sur 16 Noroeste 0.6 -- -- 97
2021-02-07 12:00:00 4.3 9 Norte 16 Norte 0.6 -- -- 96
2021-02-07 11:00:00 4.3 5 Noroeste 11 Noroeste 1.6 -- -- 97
2021-02-07 10:00:00 4.7 4 Nordeste 8 Nordeste 0.6 -- -- 96
2021-02-07 09:00:00 5.4 3 Norte 13 Sur 0.8 -- -- 95
2021-02-07 08:00:00 5.6 3 Sudeste 9 Sur 1.2 -- -- 96
2021-02-07 07:00:00 5.6 2 Sudoeste 12 Sur 0.4 -- -- 95
2021-02-07 06:00:00 5.9 3 Noroeste 16 Noroeste 0 -- -- 93
2021-02-07 05:00:00 6.4 7 Sur 11 Sur 0 -- -- 94
2021-02-07 04:00:00 6.5 5 Sur 8 Sur 0 -- -- 89
2021-02-07 03:00:00 6.1 0 Calma 8 Nordeste 0 -- -- 89
2021-02-07 02:00:00 6.4 6 Norte 19 Noroeste 0 -- -- 87
2021-02-07 01:00:00 7.6 7 Norte 22 Norte 0 -- -- 80
2021-02-07 00:00:00 7.8 13 Noroeste 30 Noroeste 0 -- -- 79
2021-02-06 23:00:00 8 12 Noroeste 30 Noroeste 0 -- -- 77
2021-02-06 22:00:00 8.2 10 Noroeste 21 Noroeste 0 -- -- 76
2021-02-06 21:00:00 8.6 9 Noroeste 28 Noroeste 0 -- -- 75
2021-02-06 20:00:00 9 12 Noroeste 24 Oeste 0 -- -- 72
2021-02-06 19:00:00 9.7 13 Oeste 24 Oeste 0 -- -- 71
2021-02-06 18:00:00 10.8 14 Oeste 24 Oeste 0 -- -- 67
2021-02-06 17:00:00 12.7 11 Oeste 24 Noroeste 0 -- -- 63
2021-02-06 16:00:00 14.4 14 Oeste 29 Oeste 0 -- -- 58
2021-02-06 15:00:00 14.6 13 Norte 26 Sur 0 -- -- 60
2021-02-06 14:00:00 15 9 Sur 23 Sur 0 -- -- 62
2021-02-06 13:00:00 14.4 7 Sur 16 Sur 0 -- -- 70
2021-02-06 12:00:00 12.8 6 Sur 15 Sur 0 -- -- 74
2021-02-06 11:00:00 10.8 2 Este 6 Sudoeste 0 -- -- 80
2021-02-06 10:00:00 8.3 2 Norte 6 Norte 0 -- -- 85
2021-02-06 09:00:00 7.6 4 Nordeste 10 Norte 0 -- -- 85
2021-02-06 08:00:00 7.5 3 Nordeste 10 Norte 0 -- -- 85
2021-02-06 07:00:00 8 5 Noroeste 13 Norte 0 -- -- 80
2021-02-06 06:00:00 8.2 3 Norte 9 Sudoeste 0 -- -- 78
2021-02-06 05:00:00 8.4 3 Noroeste 7 Sudoeste 0 -- -- 76
2021-02-06 04:00:00 8.5 0 Calma 4 Noroeste 0 -- -- 72
2021-02-06 03:00:00 8.1 2 Sudoeste 5 Sudoeste 0 -- -- 76
2021-02-06 02:00:00 8 0 Calma 3 Norte 0 -- -- 76
2021-02-06 01:00:00 8.2 0 Calma 6 Sudeste 0 -- -- 71
2021-02-06 00:00:00 8.6 0 Calma 5 Sudeste 0 -- -- 64
2021-02-05 23:00:00 7.6 2 Oeste 5 Sur 0 -- -- 72
2021-02-05 22:00:00 8 0 Calma 5 Sudoeste 0 -- -- 72
2021-02-05 21:00:00 8 3 Sur 5 Sudoeste 0 -- -- 70
2021-02-05 20:00:00 7.7 0 Calma 4 Noroeste 0 -- -- 90
2021-02-05 19:00:00 8.6 3 Noroeste 7 Noroeste 0 -- -- 89
2021-02-05 18:00:00 9.8 5 Norte 8 Norte 0 -- -- 86
2021-02-05 17:00:00 12.2 2 Sudeste 12 Este 0 -- -- 77
2021-02-05 16:00:00 13.9 3 Este 13 Nordeste 0 -- -- 69
2021-02-05 15:00:00 14.2 4 Nordeste 10 Nordeste 0 -- -- 66
2021-02-05 14:00:00 14.3 3 Este 12 Nordeste 0 -- -- 59
2021-02-05 13:00:00 14.2 4 Nordeste 17 Este 0 -- -- 58
2021-02-05 12:00:00 14 7 Sudeste 18 Sur 0 -- -- 60
2021-02-05 11:00:00 10.7 4 Este 12 Este 0 -- -- 75
2021-02-05 10:00:00 6.7 7 Noroeste 10 Noroeste 0 -- -- 95
2021-02-05 09:00:00 5.4 5 Norte 8 Noroeste 0 -- -- 98
2021-02-05 08:00:00 5.2 4 Noroeste 6 Noroeste 0 -- -- 97
2021-02-05 07:00:00 5.6 0 Calma 11 Este 0 -- -- 91
2021-02-05 06:00:00 7.4 0 Calma 6 Sudeste 0 -- -- 72
2021-02-05 05:00:00 7.1 2 Oeste 6 Este 0 -- -- 70
2021-02-05 04:00:00 7.7 3 Sudoeste 6 Sur 0 -- -- 67
2021-02-05 03:00:00 7.1 0 Calma 6 Noroeste 0 -- -- 69
2021-02-05 02:00:00 8.6 3 Norte 10 Oeste 0 -- -- 61
2021-02-05 01:00:00 9.6 4 Noroeste 18 Oeste 0 -- -- 54
2021-02-05 00:00:00 10.5 10 Oeste 19 Noroeste 0 -- -- 53
2021-02-04 23:00:00 8.2 6 Noroeste 12 Noroeste 0 -- -- 70
2021-02-04 22:00:00 8.4 5 Noroeste 17 Norte 0 -- -- 79
2021-02-04 21:00:00 8.5 6 Noroeste 15 Oeste 0 -- -- 83
2021-02-04 20:00:00 9 2 Sudoeste 5 Norte 0 -- -- 89
2021-02-04 19:00:00 10.2 0 Calma 7 Sur 0 -- -- 86
2021-02-04 18:00:00 11.9 2 Sur 9 Sur 0 -- -- 80
2021-02-04 17:00:00 14 7 Sur 16 Sur 0 -- -- 70
2021-02-04 16:00:00 15.9 3 Sudeste 12 Nordeste 0 -- -- 60
2021-02-04 15:00:00 15 5 Sur 15 Sur 0 -- -- 63
2021-02-04 14:00:00 17 5 Sudeste 15 Sur 0 -- -- 54
2021-02-04 13:00:00 16.9 8 Sur 16 Sudeste 0 -- -- 56
2021-02-04 12:00:00 14.4 3 Este 11 Sur 0 -- -- 65
2021-02-04 11:00:00 12.1 6 Sur 11 Sur 0 -- -- 71
2021-02-04 10:00:00 6 0 Calma 3 Noroeste 0 -- -- 99
2021-02-04 09:00:00 4.7 2 Oeste 4 Noroeste 0 -- -- 99
2021-02-04 08:00:00 4.2 2 Noroeste 4 Noroeste 0 -- -- 98
2021-02-04 07:00:00 4.1 0 Calma 4 Noroeste 0 -- -- 98
2021-02-04 06:00:00 4.2 0 Calma 3 Sur 0 -- -- 97
2021-02-04 05:00:00 4.1 2 Oeste 5 Nordeste 0 -- -- 96
2021-02-04 04:00:00 4.6 0 Calma 3 Sudoeste 0 -- -- 95
2021-02-04 03:00:00 5.2 0 Calma 4 Noroeste 0 -- -- 95
2021-02-04 02:00:00 5.8 0 Calma 4 Norte 0 -- -- 94
2021-02-04 01:00:00 6.6 0 Calma 3 Noroeste 0 -- -- 91
2021-02-04 00:00:00 7.1 0 Calma 3 Nordeste 0 -- -- 89
2021-02-03 23:00:00 7.9 0 Calma 3 Sur 0 -- -- 86
2021-02-03 22:00:00 8.3 0 Calma 3 Noroeste 0 -- -- 83
2021-02-03 21:00:00 8.8 2 Nordeste 5 Este 0 -- -- 81
2021-02-03 20:00:00 9.7 2 Norte 10 Norte 0 -- -- 77
2021-02-03 19:00:00 11.3 0 Calma 5 Sudoeste 0 -- -- 71
2021-02-03 18:00:00 13.4 5 Noroeste 10 Oeste 0 -- -- 61
2021-02-03 17:00:00 15.3 5 Noroeste 17 Noroeste 0 -- -- 56
2021-02-03 16:00:00 16.2 6 Noroeste 26 Norte 0 -- -- 52
2021-02-03 15:00:00 16.9 15 Noroeste 35 Oeste 0 -- -- 49
2021-02-03 14:00:00 18.1 16 Oeste 33 Oeste 0 -- -- 45
2021-02-03 13:00:00 17 18 Noroeste 34 Noroeste 0 -- -- 47
2021-02-03 12:00:00 14.3 20 Noroeste 37 Noroeste 0 -- -- 55
2021-02-03 11:00:00 13.3 23 Noroeste 44 Noroeste 0 -- -- 55
2021-02-03 10:00:00 13.2 26 Noroeste 46 Oeste 0 -- -- 51
2021-02-03 09:00:00 12 26 Noroeste 45 Noroeste 0 -- -- 53
2021-02-03 08:00:00 12 32 Noroeste 61 Noroeste 0 -- -- 53
2021-02-03 07:00:00 11.2 32 Noroeste 54 Oeste 0 -- -- 62
2021-02-03 06:00:00 11.4 30 Noroeste 56 Noroeste 0 -- -- 64
2021-02-03 05:00:00 11 25 Noroeste 53 Oeste 0 -- -- 66
2021-02-03 04:00:00 11 27 Noroeste 56 Oeste 0 -- -- 67
2021-02-03 03:00:00 10.7 23 Noroeste 47 Oeste 0 -- -- 70
2021-02-03 02:00:00 10.8 23 Noroeste 43 Oeste 0 -- -- 72
2021-02-03 01:00:00 10.4 21 Noroeste 39 Noroeste 0 -- -- 74
2021-02-03 00:00:00 10.3 21 Noroeste 33 Noroeste 0 -- -- 76
2021-02-02 23:00:00 10.4 15 Noroeste 34 Noroeste 0 -- -- 76
2021-02-02 22:00:00 10.5 9 Sudoeste 24 Noroeste 0 -- -- 76
2021-02-02 21:00:00 10.7 8 Oeste 30 Sur 0 -- -- 76
2021-02-02 20:00:00 10.8 7 Sudoeste 25 Noroeste 0 -- -- 77
2021-02-02 19:00:00 10.7 9 Noroeste 21 Noroeste 0 -- -- 77
2021-02-02 18:00:00 12 10 Noroeste 22 Norte 0 -- -- 71
2021-02-02 17:00:00 13.8 10 Noroeste 17 Noroeste 0 -- -- 63
2021-02-02 16:00:00 14.3 6 Sur 18 Sudoeste 0 -- -- 64
2021-02-02 15:00:00 15.9 4 Sur 16 Norte 0 -- -- 62
2021-02-02 14:00:00 13.7 11 Norte 25 Oeste 0 -- -- 60
2021-02-02 13:00:00 12.7 10 Norte 23 Norte 0 -- -- 63
2021-02-02 12:00:00 11.5 11 Norte 22 Oeste 0 -- -- 66
2021-02-02 11:00:00 11.2 13 Norte 25 Norte 0 -- -- 66
2021-02-02 10:00:00 8.4 16 Norte 31 Noroeste 0 -- -- 79
2021-02-02 09:00:00 6.6 12 Norte 21 Norte 0 -- -- 87
2021-02-02 08:00:00 3.1 3 Noroeste 10 Nordeste 0 -- -- 97
2021-02-02 07:00:00 3.3 0 Calma 6 Noroeste 0 -- -- 98
2021-02-02 06:00:00 3.2 3 Norte 6 Nordeste 0 -- -- 97
2021-02-02 05:00:00 2.8 3 Noroeste 6 Noroeste 0 -- -- 97
2021-02-02 04:00:00 3.1 4 Norte 7 Norte 0 -- -- 97
2021-02-02 03:00:00 3.1 3 Norte 6 Noroeste 0 -- -- 96
2021-02-02 02:00:00 3.2 3 Oeste 5 Noroeste 0 -- -- 96
2021-02-02 01:00:00 3.7 2 Noroeste 5 Norte 0 -- -- 93
2021-02-02 00:00:00 4.3 4 Norte 8 Norte 0 -- -- 92
2021-02-01 23:00:00 5.3 4 Nordeste 6 Nordeste 0 -- -- 89
2021-02-01 22:00:00 7 2 Oeste 9 Este 0 -- -- 80
2021-02-01 21:00:00 8.5 4 Nordeste 22 Noroeste 0 -- -- 74
2021-02-01 20:00:00 9.1 9 Noroeste 21 Oeste 0 -- -- 71
2021-02-01 19:00:00 10.1 12 Noroeste 25 Noroeste 0 -- -- 66
2021-02-01 18:00:00 11.5 13 Noroeste 22 Oeste 0 -- -- 61
2021-02-01 17:00:00 14.1 9 Oeste 26 Noroeste 0 -- -- 58
2021-02-01 16:00:00 14.5 12 Noroeste 28 Noroeste 0 -- -- 51
2021-02-01 15:00:00 13.7 14 Noroeste 25 Noroeste 0 -- -- 56
2021-02-01 14:00:00 12.5 9 Noroeste 24 Noroeste 0 -- -- 61
2021-02-01 13:00:00 11.8 11 Noroeste 26 Norte 0 -- -- 61
2021-02-01 12:00:00 10.2 11 Norte 32 Oeste 0 -- -- 68
2021-02-01 11:00:00 8.2 14 Noroeste 36 Noroeste 0 -- -- 75
2021-02-01 10:00:00 7 21 Norte 33 Norte 0 -- -- 79
2021-02-01 09:00:00 6.2 15 Noroeste 33 Noroeste 0 -- -- 83
2021-02-01 08:00:00 6 19 Noroeste 35 Norte 0 -- -- 85
2021-02-01 07:00:00 6.1 23 Noroeste 38 Noroeste 0 -- -- 86
2021-02-01 06:00:00 6.2 21 Noroeste 35 Noroeste 0 -- -- 88
2021-02-01 05:00:00 6 16 Noroeste 30 Noroeste 0 -- -- 89
2021-02-01 04:00:00 6.1 15 Noroeste 34 Noroeste 0 -- -- 88
2021-02-01 03:00:00 7.1 19 Noroeste 32 Oeste 0 -- -- 83
2021-02-01 02:00:00 7 19 Noroeste 38 Noroeste 0 -- -- 84
2021-02-01 01:00:00 7.5 20 Noroeste 42 Norte 0 -- -- 80
2021-02-01 00:00:00 8.1 22 Noroeste 42 Noroeste 0 -- -- 79
2021-01-31 23:00:00 7.5 21 Noroeste 37 Noroeste 0 -- -- 85
2021-01-31 22:00:00 7.8 18 Noroeste 39 Norte 0 -- -- 84
2021-01-31 21:00:00 8.2 23 Noroeste 41 Noroeste 0 -- -- 80
2021-01-31 20:00:00 8.5 21 Noroeste 36 Noroeste 0 -- -- 76
2021-01-31 19:00:00 9.1 4 Sur 23 Sur 0 -- -- 72
2021-01-31 18:00:00 10.1 12 Noroeste 36 Noroeste 0 -- -- 68
2021-01-31 17:00:00 10.8 11 Noroeste 32 Noroeste 0 -- -- 65
2021-01-31 16:00:00 10.8 15 Noroeste 33 Norte 0 -- -- 65
2021-01-31 15:00:00 10 17 Norte 37 Noroeste 0 -- -- 66
2021-01-31 14:00:00 9.2 15 Noroeste 32 Noroeste 0 -- -- 67
2021-01-31 13:00:00 8.7 17 Noroeste 38 Oeste 0 -- -- 68
2021-01-31 12:00:00 7 18 Noroeste 40 Norte 0 -- -- 73
2021-01-31 11:00:00 5.4 26 Norte 45 Norte 0 -- -- 77
2021-01-31 10:00:00 4.3 23 Noroeste 41 Oeste 0 -- -- 82
2021-01-31 09:00:00 3.3 17 Noroeste 35 Norte 0 -- -- 85
2021-01-31 08:00:00 3.3 17 Noroeste 38 Norte 0 -- -- 84
2021-01-31 07:00:00 3.5 19 Noroeste 45 Oeste 0 -- -- 83
2021-01-31 06:00:00 3.4 21 Noroeste 38 Noroeste 0 -- -- 81
2021-01-31 05:00:00 3.7 17 Noroeste 36 Norte 0 -- -- 80
2021-01-31 04:00:00 3.7 18 Noroeste 35 Noroeste 0 -- -- 78
2021-01-31 03:00:00 3.9 21 Noroeste 33 Norte 0 -- -- 78
2021-01-31 02:00:00 4.1 17 Noroeste 28 Noroeste 0 -- -- 82
2021-01-31 01:00:00 4.2 14 Noroeste 23 Noroeste 0 -- -- 82
2021-01-31 00:00:00 4 14 Noroeste 23 Noroeste 0 -- -- 85
2021-01-30 23:00:00 4.5 4 Sudeste 13 Sudoeste 0 -- -- 96
2021-01-30 22:00:00 4.9 2 Sudeste 7 Sur 0 -- -- 97
2021-01-30 21:00:00 5.2 2 Sudeste 6 Sur 0 -- -- 96
2021-01-30 20:00:00 5.5 2 Sudeste 7 Sur 0 -- -- 96
2021-01-30 19:00:00 5.9 4 Sur 9 Sudeste 0 -- -- 95
2021-01-30 18:00:00 6.4 4 Sudeste 16 Sudoeste 0 -- -- 94
2021-01-30 17:00:00 7 7 Sur 16 Sudoeste 0.6 -- -- 92
2021-01-30 16:00:00 7.6 3 Este 32 Sudoeste 2.6 -- -- 92
2021-01-30 15:00:00 11.2 15 Sudoeste 41 Sudoeste 0 -- -- 64
2021-01-30 14:00:00 11.7 13 Oeste 42 Oeste 0 -- -- 62
2021-01-30 13:00:00 10.1 23 Noroeste 55 Norte 0 -- -- 69
2021-01-30 12:00:00 10 24 Noroeste 44 Noroeste 0 -- -- 73
2021-01-30 11:00:00 9.9 34 Noroeste 70 Oeste 0 -- -- 75
2021-01-30 10:00:00 9.8 40 Noroeste 74 Oeste 0 -- -- 78
2021-01-30 09:00:00 9.9 32 Oeste 67 Noroeste 0 -- -- 77
2021-01-30 08:00:00 9.6 24 Noroeste 46 Noroeste 0 -- -- 80
2021-01-30 07:00:00 8.9 22 Noroeste 44 Noroeste 0 -- -- 82
2021-01-30 06:00:00 9.4 23 Noroeste 45 Noroeste 0 -- -- 79
2021-01-30 05:00:00 9.2 21 Noroeste 33 Noroeste 0 -- -- 78
2021-01-30 04:00:00 9.3 14 Noroeste 29 Noroeste 0 -- -- 81
2021-01-30 03:00:00 6.5 0 Calma 6 Este 0 -- -- 95
2021-01-30 02:00:00 6.1 2 Este 5 Sur 0 -- -- 97
2021-01-30 01:00:00 5.9 3 Sur 6 Norte 0 -- -- 97
2021-01-30 00:00:00 6.3 4 Norte 6 Norte 0 -- -- 96
2021-01-29 23:00:00 7.4 0 Calma 4 Sudoeste 0 -- -- 95
2021-01-29 22:00:00 8.7 3 Noroeste 5 Norte 0 -- -- 92
2021-01-29 21:00:00 9.6 0 Calma 5 Norte 0 -- -- 91
2021-01-29 20:00:00 9.8 0 Calma 7 Este 0 -- -- 90
2021-01-29 19:00:00 10.5 0 Calma 5 Nordeste 0 -- -- 86
2021-01-29 18:00:00 11.5 2 Este 9 Nordeste 0 -- -- 82
2021-01-29 17:00:00 12.8 2 Este 8 Este 0 -- -- 75
2021-01-29 16:00:00 13.9 3 Nordeste 9 Nordeste 0 -- -- 72
2021-01-29 15:00:00 14.2 2 Este 10 Sudeste 0 -- -- 71
2021-01-29 14:00:00 14.1 4 Sudeste 12 Norte 0 -- -- 70
2021-01-29 13:00:00 15.4 4 Este 9 Este 0 -- -- 67
2021-01-29 12:00:00 14 4 Sudeste 19 Sur 0 -- -- 74
2021-01-29 11:00:00 12.4 2 Oeste 13 Sudoeste 0 -- -- 77
2021-01-29 10:00:00 9.9 5 Norte 10 Noroeste 0 -- -- 86
2021-01-29 09:00:00 9.3 2 Sudeste 15 Noroeste 0 -- -- 88
2021-01-29 08:00:00 9.6 9 Norte 26 Noroeste 0 -- -- 87
2021-01-29 07:00:00 10.3 18 Noroeste 33 Noroeste 0 -- -- 83
2021-01-29 06:00:00 11.1 22 Noroeste 51 Oeste 0 -- -- 80
2021-01-29 05:00:00 11.8 28 Noroeste 44 Oeste 0 -- -- 77
2021-01-29 04:00:00 11 24 Noroeste 44 Noroeste 0 -- -- 81
2021-01-29 03:00:00 11.2 25 Noroeste 41 Noroeste 0 -- -- 81
2021-01-29 02:00:00 11.1 25 Noroeste 50 Norte 0 -- -- 82
2021-01-29 01:00:00 11.6 26 Noroeste 39 Noroeste 0 -- -- 79
2021-01-29 00:00:00 11 21 Noroeste 37 Noroeste 0 -- -- 84
2021-01-28 23:00:00 11.2 21 Noroeste 39 Noroeste 0 -- -- 84
2021-01-28 22:00:00 10.5 5 Noroeste 15 Norte 0 -- -- 88
2021-01-28 21:00:00 10 4 Norte 14 Sudoeste 0 -- -- 89
2021-01-28 20:00:00 10.1 5 Norte 15 Oeste 0 -- -- 88
2021-01-28 19:00:00 10.7 9 Oeste 17 Oeste 0 -- -- 85
2021-01-28 18:00:00 11.8 5 Noroeste 15 Noroeste 0 -- -- 77
2021-01-28 17:00:00 14.4 4 Sur 15 Oeste 0 -- -- 71
2021-01-28 16:00:00 14.8 4 Sudoeste 25 Noroeste 0 -- -- 69
2021-01-28 15:00:00 15.2 9 Noroeste 26 Oeste 0 -- -- 62
2021-01-28 14:00:00 14.7 8 Noroeste 26 Noroeste 0 -- -- 63
2021-01-28 13:00:00 13.9 9 Oeste 24 Noroeste 0 -- -- 65
2021-01-28 12:00:00 12.1 6 Noroeste 26 Noroeste 0 -- -- 74
2021-01-28 11:00:00 9.4 14 Norte 40 Noroeste 0 -- -- 86
2021-01-28 10:00:00 8.2 14 Norte 34 Noroeste 0 -- -- 93
2021-01-28 09:00:00 8 9 Norte 33 Norte 0 -- -- 95
2021-01-28 08:00:00 7.8 25 Noroeste 45 Noroeste 0 -- -- 96
2021-01-28 07:00:00 8 16 Noroeste 33 Noroeste 0 -- -- 96
2021-01-28 06:00:00 8.2 22 Noroeste 34 Norte 0 -- -- 96
2021-01-28 05:00:00 8.4 21 Noroeste 35 Noroeste 0 -- -- 94
2021-01-28 04:00:00 8.9 20 Noroeste 35 Oeste 0 -- -- 94
2021-01-28 03:00:00 9.3 11 Norte 28 Noroeste 0 -- -- 92
2021-01-28 02:00:00 9.4 9 Noroeste 26 Noroeste 0 -- -- 92
2021-01-28 01:00:00 9.9 17 Noroeste 30 Norte 0 -- -- 89
2021-01-28 00:00:00 9.1 11 Noroeste 17 Noroeste 0 -- -- 91
2021-01-27 23:00:00 10.3 6 Oeste 24 Noroeste 0 -- -- 85
2021-01-27 22:00:00 10.5 16 Noroeste 34 Noroeste 0 -- -- 85
2021-01-27 21:00:00 8.9 4 Sudoeste 10 Sudoeste 0 -- -- 86
2021-01-27 20:00:00 7.2 0 Calma 6 Norte 0 -- -- 83
2021-01-27 19:00:00 8 2 Noroeste 5 Noroeste 0 -- -- 79
2021-01-27 18:00:00 10.4 3 Noroeste 8 Sur 0 -- -- 70
2021-01-27 17:00:00 12.8 2 Sudeste 15 Sur 0 -- -- 61
2021-01-27 16:00:00 14.1 4 Sudeste 10 Sur 0 -- -- 57
2021-01-27 15:00:00 14.3 4 Este 16 Sur 0 -- -- 54
2021-01-27 14:00:00 13.8 6 Sur 20 Sur 0 -- -- 51
2021-01-27 13:00:00 15 6 Sudeste 13 Sur 0 -- -- 46
2021-01-27 12:00:00 13.2 6 Sur 11 Sur 0 -- -- 45
2021-01-27 11:00:00 11 3 Sur 8 Sudeste 0 -- -- 57
2021-01-27 10:00:00 5.9 0 Calma 8 Noroeste 0 -- -- 78
2021-01-27 09:00:00 2.5 5 Noroeste 12 Norte 0 -- -- 83
2021-01-27 08:00:00 2 3 Norte 8 Nordeste 0 -- -- 85
2021-01-27 07:00:00 2.5 2 Norte 9 Noroeste 0 -- -- 83
2021-01-27 06:00:00 2.1 3 Norte 12 Norte 0 -- -- 86
2021-01-27 05:00:00 0.1 5 Noroeste 9 Norte 0 -- -- 89
2021-01-27 04:00:00 -0.7 4 Noroeste 9 Norte 0 -- -- 89
2021-01-27 03:00:00 -1.1 3 Noroeste 6 Noroeste 0 -- -- 93
2021-01-27 02:00:00 -0.7 4 Norte 6 Norte 0 -- -- 92
2021-01-27 01:00:00 -0.4 0 Calma 9 Nordeste 0 -- -- 89
2021-01-27 00:00:00 0 3 Noroeste 9 Norte 0 -- -- 84
2021-01-26 23:00:00 -0.1 5 Norte 9 Norte 0 -- -- 86
2021-01-26 22:00:00 1.6 3 Noroeste 8 Sudoeste 0 -- -- 80
2021-01-26 21:00:00 2.4 6 Noroeste 17 Norte 0 -- -- 81
2021-01-26 20:00:00 3.1 3 Noroeste 8 Sudeste 0 -- -- 82
2021-01-26 19:00:00 3.8 2 Noroeste 10 Noroeste 0 -- -- 78
2021-01-26 18:00:00 5.8 5 Noroeste 19 Norte 0 -- -- 69
2021-01-26 17:00:00 7.2 8 Noroeste 25 Noroeste 0 -- -- 64
2021-01-26 16:00:00 6.7 15 Noroeste 33 Noroeste 0 -- -- 65
2021-01-26 15:00:00 7.5 12 Noroeste 24 Noroeste 0 -- -- 66
2021-01-26 14:00:00 7.5 15 Oeste 26 Oeste 0 -- -- 64
2021-01-26 13:00:00 7.6 4 Sudoeste 14 Sur 0 -- -- 69
2021-01-26 12:00:00 6 9 Sur 17 Sur 0 -- -- 72
2021-01-26 11:00:00 3.1 5 Sur 14 Sur 0 -- -- 81
2021-01-26 10:00:00 2.9 6 Sur 15 Sur 0 -- -- 90
2021-01-26 09:00:00 1.7 0 Calma 3 Oeste 0 -- -- 95
2021-01-26 08:00:00 1.4 0 Calma 8 Sur 0 -- -- 96
2021-01-26 07:00:00 1.2 4 Nordeste 8 Nordeste 0 -- -- 94
2021-01-26 06:00:00 1.6 3 Noroeste 4 Noroeste 0 -- -- 92
2021-01-26 05:00:00 2.2 0 Calma 5 Sur 0 -- -- 93
2021-01-26 04:00:00 2.1 2 Este 6 Sur 0 -- -- 92
2021-01-26 03:00:00 2.3 3 Sudeste 6 Sur 0 -- -- 92
2021-01-26 02:00:00 2.2 3 Nordeste 9 Sur 0 -- -- 92
2021-01-26 01:00:00 2.3 0 Calma 9 Sur 0 -- -- 92
2021-01-26 00:00:00 2.4 4 Sudeste 8 Sur 0 -- -- 93
2021-01-25 23:00:00 2.8 4 Sudeste 10 Sur 0 -- -- 92
2021-01-25 22:00:00 3.4 0 Calma 8 Este 0 -- -- 90
2021-01-25 21:00:00 3.7 0 Calma 4 Sudeste 0 -- -- 91
2021-01-25 20:00:00 3.7 0 Calma 6 Norte 0 -- -- 90
2021-01-25 19:00:00 4.4 2 Este 9 Nordeste 0 -- -- 88
2021-01-25 18:00:00 5 4 Nordeste 12 Este 0 -- -- 89
2021-01-25 17:00:00 5.6 0 Calma 6 Nordeste 0 -- -- 82
2021-01-25 16:00:00 5.7 0 Calma 7 Sudeste 0 -- -- 82
2021-01-25 15:00:00 5.9 2 Este 12 Sudeste 0 -- -- 81
2021-01-25 14:00:00 6.8 5 Sur 18 Noroeste 0 -- -- 77
2021-01-25 13:00:00 6.7 12 Noroeste 26 Norte 0 -- -- 73
2021-01-25 12:00:00 5.8 12 Norte 24 Norte 0 -- -- 77
2021-01-25 11:00:00 5.1 5 Norte 24 Norte 0 -- -- 79
2021-01-25 10:00:00 4.9 4 Norte 21 Oeste 0 -- -- 79
2021-01-25 09:00:00 4.7 5 Norte 31 Norte 0 -- -- 79
2021-01-25 08:00:00 4.3 19 Norte 37 Noroeste 0 -- -- 80
2021-01-25 07:00:00 4.3 22 Noroeste 38 Noroeste 0 -- -- 79
2021-01-25 06:00:00 4.1 21 Noroeste 37 Noroeste 0 -- -- 79
2021-01-25 05:00:00 3.8 19 Noroeste 33 Noroeste 0 -- -- 80
2021-01-25 04:00:00 3.9 21 Noroeste 36 Noroeste 0 -- -- 79
2021-01-25 03:00:00 3.8 21 Noroeste 33 Noroeste 0 -- -- 78
2021-01-25 02:00:00 4.1 19 Noroeste 37 Noroeste 0 -- -- 75
2021-01-25 01:00:00 4.7 21 Noroeste 37 Noroeste 0 -- -- 70
2021-01-25 00:00:00 4.5 19 Noroeste 35 Oeste 0 -- -- 70